Powell River, Canada
Current Conditions -  °F | °C
As of 8:00 AM on Friday 28 Nov 2014 (Local Time) from CYPW Reporting Station
Few Clouds Few Clouds  
Wind Chill: 32°   Ceiling: Unl
Heat Index: 37°   Visibility: 30mi
Dew Point: 30°   Wind: 7mph
Humidity: 75%   Direction: 300°WNW
Pressure: 29.54"   Gusts: NA
Location:  49.84°N, 124.52°W
Report Text: CYPW 281600Z 30006KT 270V350 30SM FEW035 FEW250 03/M01 A2954 RMK CF1CI1 CF TR CI TR SLP007
Loading
Personal Weather Stations






























Interactive Weather Map New forecast layout! Learn more

10-Day Weather Forecast

Advertisements
Track Severe Weather on mobile